Terminal Aerodrome Forecast
Issued by NWS Brownsville, TX

Home | Current Version | Previous Version | Text Only | Print | Product List | Glossary On
Versions: 1 2 3 4 5 6 7 8 9 10 11 12 13 14 15 16 17 18 19 20 21
000
FTUS44 KBRO 202300
TAFBRO
TAF
KBRO 202330Z 2100/2124 06008KT P6SM FEW040 SCT150
     FM210200 07006KT P6SM SCT030
     FM211700 07012KT P6SM VCSH SCT030 BKN050
     FM212100 05010KT P6SM SCT050 SCT120=

USA.gov is the U.S. government's official web portal to all federal, state and local government web resources and services.